createdAt,value
2022-10-16T00:00:44.315Z,17.20
2022-10-16T00:03:15.553Z,17.20
2022-10-16T00:05:46.492Z,17.30
2022-10-16T00:08:17.368Z,17.10
2022-10-16T00:10:48.287Z,17.20
2022-10-16T00:13:20.719Z,17.20
2022-10-16T00:15:51.576Z,17.10
2022-10-16T00:18:22.628Z,17.10
2022-10-16T00:20:53.831Z,17.20
2022-10-16T00:23:24.768Z,17.20
2022-10-16T00:25:58.244Z,17.20
2022-10-16T00:28:29.829Z,17.10
2022-10-16T00:31:07.572Z,17.10
2022-10-16T00:33:40.861Z,17.10
2022-10-16T00:36:16.713Z,17.00
2022-10-16T00:38:48.093Z,17.00
2022-10-16T00:41:19.002Z,16.90
2022-10-16T00:43:59.087Z,16.80
2022-10-16T00:46:42.678Z,16.80
2022-10-16T00:49:18.083Z,16.90
2022-10-16T00:51:54.723Z,16.80
2022-10-16T00:54:31.458Z,16.80
2022-10-16T00:57:07.170Z,16.80
2022-10-16T00:59:41.463Z,16.80
2022-10-16T01:02:15.649Z,16.70
2022-10-16T01:04:51.741Z,16.80
2022-10-16T01:07:42.952Z,16.80
2022-10-16T01:10:41.825Z,16.70
2022-10-16T01:13:24.321Z,16.70
2022-10-16T01:15:59.199Z,16.60
2022-10-16T01:18:41.037Z,16.50
2022-10-16T01:21:32.452Z,16.70
2022-10-16T01:24:16.533Z,16.70
2022-10-16T01:27:06.523Z,16.80
2022-10-16T01:30:06.043Z,16.80
2022-10-16T01:32:46.602Z,16.80
2022-10-16T01:35:35.509Z,16.80
2022-10-16T01:38:15.348Z,16.90
2022-10-16T01:40:52.617Z,16.90
2022-10-16T01:43:49.205Z,16.70
2022-10-16T01:46:22.486Z,16.80
2022-10-16T01:48:54.452Z,16.80
2022-10-16T01:51:26.477Z,16.70
2022-10-16T01:54:02.105Z,16.80
2022-10-16T01:56:34.832Z,16.80
2022-10-16T01:59:11.596Z,16.80
2022-10-16T02:01:48.863Z,16.80
2022-10-16T02:05:04.911Z,16.70
2022-10-16T02:07:35.930Z,16.50
2022-10-16T02:10:07.347Z,16.70
2022-10-16T02:12:44.417Z,16.70
2022-10-16T02:15:15.622Z,16.60
2022-10-16T02:17:46.531Z,16.60
2022-10-16T02:20:17.954Z,16.40
2022-10-16T02:22:53.268Z,16.50
2022-10-16T02:25:33.591Z,16.50
2022-10-16T02:28:09.671Z,16.50
2022-10-16T02:30:50.200Z,16.40
2022-10-16T02:33:23.250Z,16.30
2022-10-16T02:35:55.558Z,16.30
2022-10-16T02:38:27.632Z,16.30
2022-10-16T02:40:58.673Z,16.30
2022-10-16T02:43:29.559Z,16.30
2022-10-16T02:46:00.998Z,16.40
2022-10-16T02:48:31.904Z,16.40
2022-10-16T02:51:02.772Z,16.50
2022-10-16T02:53:33.682Z,16.50
2022-10-16T02:56:04.886Z,16.50
2022-10-16T02:58:35.822Z,16.50
2022-10-16T03:01:06.774Z,16.50
2022-10-16T03:03:37.676Z,16.50
2022-10-16T03:06:08.557Z,16.50
2022-10-16T03:08:39.540Z,16.50
2022-10-16T03:11:10.423Z,16.40
2022-10-16T03:13:41.317Z,16.40
2022-10-16T03:16:12.227Z,16.40
2022-10-16T03:18:43.124Z,16.40
2022-10-16T03:21:13.994Z,16.40
2022-10-16T03:23:44.919Z,16.40
2022-10-16T03:26:15.796Z,16.40
2022-10-16T03:28:46.758Z,16.40
2022-10-16T03:31:17.649Z,16.40
2022-10-16T03:33:48.527Z,16.40
2022-10-16T03:36:19.371Z,16.40
2022-10-16T03:38:50.270Z,16.40
2022-10-16T03:41:21.194Z,16.50
2022-10-16T03:43:52.116Z,16.40
2022-10-16T03:46:23.012Z,16.50
2022-10-16T03:48:54.002Z,16.40
2022-10-16T03:51:24.984Z,16.40
2022-10-16T03:53:55.865Z,16.40
2022-10-16T03:56:27.332Z,16.40
2022-10-16T03:58:58.221Z,16.30
2022-10-16T04:01:29.140Z,16.30
2022-10-16T04:04:00.231Z,16.30
2022-10-16T04:06:31.171Z,16.30
2022-10-16T04:09:02.094Z,16.40
2022-10-16T04:11:32.959Z,16.40
2022-10-16T04:14:03.955Z,16.40
2022-10-16T04:16:34.802Z,16.30
2022-10-16T04:19:05.827Z,16.20
2022-10-16T04:21:37.896Z,16.20
2022-10-16T04:24:08.811Z,16.20
2022-10-16T04:26:39.690Z,16.20
2022-10-16T04:29:10.583Z,16.20
2022-10-16T04:31:41.444Z,16.10
2022-10-16T04:34:12.339Z,16.20
2022-10-16T04:36:43.215Z,16.10
2022-10-16T04:39:14.106Z,16.10
2022-10-16T04:41:45.005Z,16.10
2022-10-16T04:44:15.978Z,16.20
2022-10-16T04:46:46.847Z,16.20
2022-10-16T04:49:17.815Z,16.20
2022-10-16T04:51:48.698Z,16.20
2022-10-16T04:54:19.627Z,16.20
2022-10-16T04:56:52.514Z,16.20
2022-10-16T04:59:24.038Z,16.20
2022-10-16T05:01:55.110Z,16.20
2022-10-16T05:04:25.998Z,16.10
2022-10-16T05:06:56.876Z,16.10
2022-10-16T05:09:27.746Z,16.20
2022-10-16T05:11:58.582Z,16.20
2022-10-16T05:14:29.462Z,16.20
2022-10-16T05:17:01.563Z,16.10
2022-10-16T05:19:32.488Z,16.20
2022-10-16T05:22:03.748Z,16.10
2022-10-16T05:24:34.714Z,16.10
2022-10-16T05:27:05.597Z,16.10
2022-10-16T05:29:36.494Z,16.10
2022-10-16T05:32:07.361Z,16.10
2022-10-16T05:34:38.260Z,16.20
2022-10-16T05:37:09.647Z,16.10
2022-10-16T05:39:40.913Z,16.10
2022-10-16T05:42:11.798Z,16.10
2022-10-16T05:44:42.726Z,16.10
2022-10-16T05:47:16.573Z,16.00
2022-10-16T05:49:47.614Z,16.10
2022-10-16T05:52:18.819Z,16.20
2022-10-16T05:54:49.847Z,16.10
2022-10-16T05:57:20.689Z,16.10
2022-10-16T05:59:51.595Z,16.00
2022-10-16T06:02:22.770Z,16.00
2022-10-16T06:04:56.489Z,16.00
2022-10-16T06:07:27.533Z,16.10
2022-10-16T06:09:58.681Z,16.00
2022-10-16T06:12:29.602Z,15.90
2022-10-16T06:15:00.525Z,16.00
2022-10-16T06:17:31.371Z,15.90
2022-10-16T06:20:02.243Z,15.90
2022-10-16T06:22:33.107Z,15.90
2022-10-16T06:25:04.420Z,15.80
2022-10-16T06:27:35.269Z,15.90
2022-10-16T06:30:07.275Z,15.90
2022-10-16T06:32:38.138Z,15.90
2022-10-16T06:35:09.258Z,15.90
2022-10-16T06:37:40.138Z,15.90
2022-10-16T06:40:11.312Z,15.90
2022-10-16T06:42:43.193Z,16.00
2022-10-16T06:45:14.139Z,15.90
2022-10-16T06:47:45.026Z,15.90
2022-10-16T06:50:16.313Z,15.90
2022-10-16T06:52:48.297Z,16.00
2022-10-16T06:55:19.253Z,16.00
2022-10-16T06:57:53.140Z,16.00
2022-10-16T07:02:59.915Z,16.20
2022-10-16T07:05:30.832Z,16.20
2022-10-16T07:08:01.704Z,16.20
2022-10-16T07:10:36.295Z,16.20
2022-10-16T07:13:08.667Z,16.40
2022-10-16T07:15:39.843Z,16.60
2022-10-16T07:18:11.115Z,16.80
2022-10-16T07:20:42.004Z,16.90
2022-10-16T07:23:12.980Z,17.00
2022-10-16T07:25:43.882Z,17.10
2022-10-16T07:28:14.762Z,17.10
2022-10-16T07:30:45.626Z,17.00
2022-10-16T07:33:16.609Z,17.00
2022-10-16T07:35:55.614Z,16.90
2022-10-16T07:38:26.568Z,17.00
2022-10-16T07:41:06.764Z,17.00
2022-10-16T07:43:37.905Z,16.90
2022-10-16T07:46:08.791Z,16.90
2022-10-16T07:48:39.793Z,16.90
2022-10-16T07:51:15.576Z,16.90
2022-10-16T07:53:47.851Z,17.00
2022-10-16T07:56:20.109Z,17.20
2022-10-16T07:58:52.079Z,17.20
2022-10-16T08:01:23.062Z,17.10
2022-10-16T08:03:54.488Z,17.10
2022-10-16T08:06:28.097Z,17.20
2022-10-16T08:09:00.977Z,17.20
2022-10-16T08:11:31.907Z,17.20
2022-10-16T08:14:02.799Z,17.30
2022-10-16T08:16:33.707Z,17.40
2022-10-16T08:19:04.713Z,17.50
2022-10-16T08:21:40.576Z,17.50
2022-10-16T08:24:11.588Z,17.60
2022-10-16T08:26:42.547Z,17.70
2022-10-16T08:29:15.515Z,17.70
2022-10-16T08:31:46.437Z,17.80
2022-10-16T08:34:17.352Z,17.80
2022-10-16T08:36:48.307Z,17.90
2022-10-16T08:39:19.184Z,18.00
2022-10-16T08:42:43.812Z,18.10
2022-10-16T08:45:39.887Z,18.30
2022-10-16T08:48:49.591Z,18.30
2022-10-16T08:51:27.410Z,18.30
2022-10-16T08:54:05.872Z,18.40
2022-10-16T08:56:36.731Z,18.50
2022-10-16T08:59:11.903Z,18.60
2022-10-16T09:01:47.923Z,18.60
2022-10-16T09:05:02.343Z,18.60
2022-10-16T09:07:56.978Z,18.60
2022-10-16T09:10:47.434Z,18.60
2022-10-16T09:13:52.296Z,18.80
2022-10-16T09:16:37.073Z,18.90
2022-10-16T09:19:34.351Z,19.00
2022-10-16T09:22:16.803Z,19.00
2022-10-16T09:24:47.791Z,19.10
2022-10-16T09:27:18.742Z,19.00
2022-10-16T09:29:49.684Z,19.10
2022-10-16T09:32:23.113Z,19.20
2022-10-16T09:34:59.687Z,19.20
2022-10-16T09:37:32.068Z,19.30
2022-10-16T09:40:06.674Z,19.30
2022-10-16T09:42:38.898Z,19.30
2022-10-16T09:45:24.346Z,19.40
2022-10-16T09:47:57.741Z,19.40
2022-10-16T09:50:30.042Z,19.40
2022-10-16T09:53:16.013Z,19.50
2022-10-16T09:55:54.471Z,19.70
2022-10-16T09:58:25.902Z,19.70
2022-10-16T10:00:56.855Z,19.80
2022-10-16T10:03:41.237Z,19.90
2022-10-16T10:06:20.371Z,20.00
2022-10-16T10:09:20.680Z,20.00
2022-10-16T10:11:59.194Z,20.10
2022-10-16T10:14:41.197Z,20.30
2022-10-16T10:17:25.962Z,20.30
2022-10-16T10:20:19.089Z,20.50
2022-10-16T10:22:50.188Z,20.50
2022-10-16T10:25:33.195Z,20.50
2022-10-16T10:28:31.749Z,20.70
2022-10-16T10:31:21.008Z,20.90
2022-10-16T10:34:17.672Z,21.20
2022-10-16T10:37:05.622Z,21.40
2022-10-16T10:39:54.558Z,21.60
2022-10-16T10:42:42.975Z,22.00
2022-10-16T10:45:19.805Z,22.10
2022-10-16T10:48:11.651Z,22.50
2022-10-16T10:51:13.593Z,23.20
2022-10-16T10:54:22.768Z,23.20
2022-10-16T10:57:22.552Z,23.20
2022-10-16T11:00:23.838Z,23.50
2022-10-16T11:03:33.648Z,23.50
2022-10-16T11:06:40.505Z,23.50
2022-10-16T11:09:24.944Z,23.70
2022-10-16T11:11:57.606Z,23.70
2022-10-16T11:14:48.751Z,23.60
2022-10-16T11:17:40.124Z,23.40
2022-10-16T11:20:48.338Z,23.50
2022-10-16T11:23:32.487Z,23.50
2022-10-16T11:26:12.852Z,23.70
2022-10-16T11:28:50.649Z,23.90
2022-10-16T11:31:39.595Z,24.00
2022-10-16T11:34:23.953Z,24.20
2022-10-16T11:37:25.074Z,24.70
2022-10-16T11:40:15.577Z,25.00
2022-10-16T11:42:55.688Z,25.00
2022-10-16T11:45:41.627Z,24.80
2022-10-16T11:48:51.788Z,24.80
2022-10-16T11:51:36.011Z,24.80
2022-10-16T11:54:36.178Z,24.70
2022-10-16T11:57:21.839Z,24.80
2022-10-16T12:00:00.118Z,25.10
2022-10-16T12:02:30.951Z,25.50
2022-10-16T12:06:05.238Z,25.50
2022-10-16T12:08:36.933Z,25.60
2022-10-16T12:11:37.084Z,25.70
2022-10-16T12:14:14.211Z,26.10
2022-10-16T12:17:25.199Z,26.00
2022-10-16T12:20:14.488Z,26.10
2022-10-16T12:23:03.817Z,26.00
2022-10-16T12:25:38.620Z,25.80
2022-10-16T12:28:28.961Z,25.50
2022-10-16T12:31:07.472Z,25.30
2022-10-16T12:33:42.676Z,25.20
2022-10-16T12:36:34.787Z,25.20
2022-10-16T12:39:06.086Z,25.50
2022-10-16T12:41:41.013Z,25.60
2022-10-16T12:44:27.294Z,25.70
2022-10-16T12:46:58.268Z,25.90
2022-10-16T12:49:29.131Z,26.00
2022-10-16T12:52:00.258Z,25.80
2022-10-16T12:54:39.888Z,25.70
2022-10-16T12:57:47.435Z,25.70
2022-10-16T13:00:33.402Z,25.70
2022-10-16T13:03:38.183Z,25.70
2022-10-16T13:06:30.585Z,25.90
2022-10-16T13:09:16.392Z,25.80
2022-10-16T13:12:12.076Z,25.50
2022-10-16T13:15:06.674Z,25.20
2022-10-16T13:17:51.357Z,25.10
2022-10-16T13:21:06.088Z,25.40
2022-10-16T13:23:58.203Z,25.70
2022-10-16T13:27:25.558Z,25.40
2022-10-16T13:30:10.114Z,25.40
2022-10-16T13:32:41.793Z,25.30
2022-10-16T13:35:26.355Z,25.20
2022-10-16T13:38:16.817Z,25.20
2022-10-16T13:40:58.120Z,25.20
2022-10-16T13:43:33.792Z,25.20
2022-10-16T13:46:17.623Z,25.20
2022-10-16T13:49:07.002Z,25.00
2022-10-16T13:51:38.058Z,25.00
2022-10-16T13:54:12.574Z,25.00
2022-10-16T13:56:43.527Z,24.90
2022-10-16T13:59:25.227Z,24.90
2022-10-16T14:02:00.860Z,24.80
2022-10-16T14:04:34.194Z,24.80
2022-10-16T14:07:05.165Z,24.80
2022-10-16T14:09:37.507Z,24.60
2022-10-16T14:12:13.505Z,24.60
2022-10-16T14:14:53.665Z,24.40
2022-10-16T14:17:34.409Z,24.40
2022-10-16T14:20:07.984Z,24.20
2022-10-16T14:22:42.308Z,24.20
2022-10-16T14:25:28.613Z,24.10
2022-10-16T14:28:13.861Z,24.10
2022-10-16T14:31:02.962Z,24.10
2022-10-16T14:33:35.568Z,24.00
2022-10-16T14:36:11.892Z,24.00
2022-10-16T14:39:01.611Z,24.00
2022-10-16T14:41:41.710Z,23.90
2022-10-16T14:44:14.017Z,23.80
2022-10-16T14:46:46.479Z,23.80
2022-10-16T14:49:22.023Z,23.70
2022-10-16T14:51:53.468Z,23.70
2022-10-16T14:54:24.408Z,23.70
2022-10-16T14:56:58.708Z,23.60
2022-10-16T14:59:39.065Z,23.60
2022-10-16T15:02:23.183Z,23.50
2022-10-16T15:04:54.244Z,23.50
2022-10-16T15:07:28.166Z,23.50
2022-10-16T15:09:59.500Z,23.50
2022-10-16T15:12:30.370Z,23.40
2022-10-16T15:15:01.327Z,23.40
2022-10-16T15:17:34.425Z,23.40
2022-10-16T15:20:06.220Z,23.40
2022-10-16T15:22:37.138Z,23.40
2022-10-16T15:25:49.469Z,23.40
2022-10-16T15:28:22.593Z,23.40
2022-10-16T15:30:56.388Z,23.40
2022-10-16T15:33:35.803Z,23.40
2022-10-16T15:36:09.910Z,23.40
2022-10-16T15:38:40.871Z,23.30
2022-10-16T15:41:11.744Z,23.30
2022-10-16T15:43:42.781Z,23.20
2022-10-16T15:46:19.911Z,23.10
2022-10-16T15:48:52.500Z,23.10
2022-10-16T15:51:23.436Z,23.10
2022-10-16T15:53:54.883Z,23.00
2022-10-16T15:56:26.651Z,23.00
2022-10-16T15:58:59.299Z,22.90
2022-10-16T16:01:35.031Z,22.90
2022-10-16T16:04:11.329Z,22.90
2022-10-16T16:06:51.141Z,22.80
2022-10-16T16:09:22.056Z,22.70
2022-10-16T16:11:53.490Z,22.80
2022-10-16T16:14:26.019Z,22.70
2022-10-16T16:16:57.959Z,22.70
2022-10-16T16:19:28.963Z,22.50
2022-10-16T16:22:00.022Z,22.50
2022-10-16T16:24:30.922Z,22.40
2022-10-16T16:29:37.820Z,22.20
2022-10-16T16:32:10.685Z,22.10
2022-10-16T16:34:41.779Z,22.00
2022-10-16T16:37:12.786Z,21.80
2022-10-16T16:39:44.139Z,21.70
2022-10-16T16:42:15.111Z,21.60
2022-10-16T16:44:46.031Z,21.40
2022-10-16T16:47:16.928Z,21.30
2022-10-16T16:49:48.185Z,21.20
2022-10-16T16:52:19.468Z,21.10
2022-10-16T16:54:52.974Z,20.90
2022-10-16T16:57:24.328Z,21.00
2022-10-16T16:59:55.409Z,20.80
2022-10-16T17:02:26.609Z,20.60
2022-10-16T17:04:58.498Z,20.60
2022-10-16T17:07:35.369Z,20.60
2022-10-16T17:10:07.028Z,20.60
2022-10-16T17:12:38.000Z,20.50
2022-10-16T17:15:09.639Z,20.50
2022-10-16T17:17:41.268Z,20.40
2022-10-16T17:20:12.216Z,20.40
2022-10-16T17:22:43.237Z,20.30
2022-10-16T17:25:14.196Z,20.30
2022-10-16T17:27:45.243Z,20.20
2022-10-16T17:30:16.224Z,20.20
2022-10-16T17:32:47.310Z,20.10
2022-10-16T17:35:18.196Z,20.10
2022-10-16T17:37:49.107Z,20.00
2022-10-16T17:40:20.760Z,20.00
2022-10-16T17:42:51.732Z,20.00
2022-10-16T17:45:22.781Z,19.90
2022-10-16T17:47:54.050Z,19.80
2022-10-16T17:50:25.034Z,19.60
2022-10-16T17:52:55.941Z,19.40
2022-10-16T17:55:27.354Z,19.30
2022-10-16T17:57:58.460Z,19.20
2022-10-16T18:00:29.501Z,19.00
2022-10-16T18:03:04.961Z,18.90
2022-10-16T18:05:38.775Z,18.90
2022-10-16T18:08:09.863Z,18.80
2022-10-16T18:10:48.903Z,18.70
2022-10-16T18:13:19.880Z,18.60
2022-10-16T18:16:09.822Z,18.50
2022-10-16T18:18:43.145Z,18.50
2022-10-16T18:21:17.760Z,18.50
2022-10-16T18:23:51.897Z,18.40
2022-10-16T18:26:24.268Z,18.40
2022-10-16T18:28:57.682Z,18.40
2022-10-16T18:31:29.333Z,18.40
2022-10-16T18:34:00.891Z,18.40
2022-10-16T18:36:34.636Z,18.30
2022-10-16T18:39:11.454Z,18.30
2022-10-16T18:41:47.511Z,18.20
2022-10-16T18:46:57.078Z,18.10
2022-10-16T18:49:29.582Z,18.10
2022-10-16T18:52:03.156Z,18.00
2022-10-16T18:54:34.358Z,17.90
2022-10-16T18:57:05.339Z,17.90
2022-10-16T18:59:37.440Z,17.70
2022-10-16T19:02:09.821Z,17.70
2022-10-16T19:04:40.953Z,17.60
2022-10-16T19:07:12.107Z,17.50
2022-10-16T19:09:43.118Z,17.50
2022-10-16T19:12:13.993Z,17.40
2022-10-16T19:14:45.030Z,17.40
2022-10-16T19:17:15.920Z,17.30
2022-10-16T19:19:46.875Z,17.30
2022-10-16T19:22:28.322Z,17.20
2022-10-16T19:24:59.788Z,17.20
2022-10-16T19:27:30.712Z,17.20
2022-10-16T19:30:01.920Z,17.10
2022-10-16T19:32:32.927Z,17.10
2022-10-16T19:35:04.233Z,17.00
2022-10-16T19:37:36.067Z,17.00
2022-10-16T19:40:07.848Z,17.00
2022-10-16T19:42:43.538Z,17.00
2022-10-16T19:45:14.515Z,17.00
2022-10-16T19:47:45.908Z,17.00
2022-10-16T19:50:16.921Z,17.00
2022-10-16T19:52:47.846Z,17.00
2022-10-16T19:55:19.063Z,17.00
2022-10-16T19:57:50.022Z,16.90
2022-10-16T20:00:21.143Z,16.90
2022-10-16T20:02:52.035Z,16.90
2022-10-16T20:05:22.920Z,16.90
2022-10-16T20:07:53.810Z,16.70
2022-10-16T20:10:25.757Z,16.70
2022-10-16T20:12:56.715Z,16.70
2022-10-16T20:15:27.567Z,16.70
2022-10-16T20:17:58.467Z,16.70
2022-10-16T20:20:32.440Z,16.60
2022-10-16T20:23:03.474Z,16.60
2022-10-16T20:25:40.192Z,16.60
2022-10-16T20:28:19.403Z,16.50
2022-10-16T20:30:50.991Z,16.50
2022-10-16T20:33:22.027Z,16.50
2022-10-16T20:35:52.930Z,16.50
2022-10-16T20:38:23.859Z,16.50
2022-10-16T20:40:54.799Z,16.50
2022-10-16T20:43:25.722Z,16.50
2022-10-16T20:46:06.290Z,16.50
2022-10-16T20:48:41.162Z,16.40
2022-10-16T20:51:18.696Z,16.50
2022-10-16T20:53:59.908Z,16.40
2022-10-16T20:56:34.233Z,16.40
2022-10-16T20:59:06.674Z,16.30
2022-10-16T21:01:38.160Z,16.30
2022-10-16T21:04:09.856Z,16.20
2022-10-16T21:06:40.925Z,16.20
2022-10-16T21:09:11.926Z,16.10
2022-10-16T21:11:43.288Z,16.10
2022-10-16T21:14:14.179Z,16.10
2022-10-16T21:16:45.050Z,16.00
2022-10-16T21:19:15.964Z,16.00
2022-10-16T21:21:46.936Z,16.00
2022-10-16T21:24:18.331Z,15.90
2022-10-16T21:26:49.440Z,15.90
2022-10-16T21:29:20.687Z,15.90
2022-10-16T21:31:51.786Z,15.90
2022-10-16T21:34:22.780Z,15.80
2022-10-16T21:36:53.788Z,15.80
2022-10-16T21:39:24.867Z,15.80
2022-10-16T21:41:55.935Z,15.90
2022-10-16T21:44:27.033Z,15.90
2022-10-16T21:46:57.946Z,16.00
2022-10-16T21:49:29.140Z,15.90
2022-10-16T21:52:00.075Z,15.90
2022-10-16T21:54:31.123Z,15.90
2022-10-16T21:59:35.495Z,15.80
2022-10-16T22:02:06.616Z,15.80
2022-10-16T22:04:37.794Z,15.80
2022-10-16T22:07:08.717Z,15.80
2022-10-16T22:09:39.700Z,15.80
2022-10-16T22:12:10.735Z,15.70
2022-10-16T22:14:41.673Z,15.60
2022-10-16T22:17:13.567Z,15.60
2022-10-16T22:19:44.581Z,15.50
2022-10-16T22:22:15.447Z,15.60
2022-10-16T22:24:47.000Z,15.50
2022-10-16T22:27:18.061Z,15.50
2022-10-16T22:29:52.236Z,15.40
2022-10-16T22:32:23.433Z,15.30
2022-10-16T22:34:54.418Z,15.20
2022-10-16T22:37:25.732Z,15.20
2022-10-16T22:39:58.997Z,15.10
2022-10-16T22:42:31.885Z,15.20
2022-10-16T22:45:03.022Z,15.10
2022-10-16T22:47:34.070Z,15.00
2022-10-16T22:50:05.836Z,15.00
2022-10-16T22:52:37.594Z,15.00
2022-10-16T22:55:09.446Z,14.90
2022-10-16T22:57:45.483Z,14.90
2022-10-16T23:00:19.600Z,14.80
2022-10-16T23:02:50.706Z,14.80
2022-10-16T23:05:21.633Z,14.80
2022-10-16T23:07:52.516Z,14.80
2022-10-16T23:10:27.617Z,14.70
2022-10-16T23:12:58.524Z,14.70
2022-10-16T23:15:29.417Z,14.70
2022-10-16T23:18:00.560Z,14.70
2022-10-16T23:20:31.463Z,14.60
2022-10-16T23:23:02.381Z,14.60
2022-10-16T23:25:33.309Z,14.60
2022-10-16T23:28:04.692Z,14.60
2022-10-16T23:30:35.680Z,14.50
2022-10-16T23:33:06.578Z,14.50
2022-10-16T23:35:40.894Z,14.50
2022-10-16T23:38:11.923Z,14.50
2022-10-16T23:40:42.819Z,14.50
2022-10-16T23:43:13.762Z,14.50
2022-10-16T23:45:44.638Z,14.50
2022-10-16T23:48:15.585Z,14.40
2022-10-16T23:50:46.615Z,14.30
2022-10-16T23:53:17.599Z,14.20
2022-10-16T23:55:48.651Z,14.10
2022-10-16T23:58:19.637Z,14.20
